Аэропорт: Емельяново. Красноярск

ICAO: UNKL

METAR:
2019-12-12 11:30:00
UNKL 121130Z 20004MPS 9999 BKN029 00/M05 Q1015 R29/810250 NOSIG RMK QFE735
METAR:
2019-12-12 07:59:00
TAF UNKL 120759Z 1209/1309 22003G10MPS 9999 BKN020 BECMG 1212/1214 SCT020CB TEMPO 1216/1223 3100 -SHSN SCT011 BKN015CB